Time;durP1;ratioP1;P1;durP2;ratioP2;P2;SDS_P1;SDS_P2;PMS_P1;PMS_P2;Temp;Humidity;BMP_temperature;BMP_pressure;BME280_temperature;BME280_humidity;BME280_pressure;Samples;Min_cycle;Max_cycle;Signal;HPM_P1;HPM_P2
2023/05/30 00:00:31;;;;;;;7.20;2.40;;;15.30;62.60;;;;;;5056066;28;20413;-43
2023/05/30 00:03:00;;;;;;;6.77;2.23;;;15.00;62.40;;;;;;5055676;28;20470;-44
2023/05/30 00:05:27;;;;;;;5.00;2.30;;;15.30;62.80;;;;;;5055568;28;20442;-44
2023/05/30 00:07:53;;;;;;;7.80;1.90;;;14.70;62.20;;;;;;5055350;28;20439;-43
2023/05/30 00:10:20;;;;;;;8.20;2.33;;;15.20;62.80;;;;;;5053888;28;20812;-43
2023/05/30 00:12:47;;;;;;;5.70;2.13;;;15.30;63.10;;;;;;5055989;28;20881;-42
2023/05/30 00:15:16;;;;;;;5.13;2.60;;;15.00;62.80;;;;;;5054353;28;20868;-42
2023/05/30 00:17:43;;;;;;;7.17;2.90;;;14.90;62.90;;;;;;5055483;28;20955;-42
2023/05/30 00:20:11;;;;;;;6.63;2.27;;;15.10;63.10;;;;;;5055158;28;20444;-43
2023/05/30 00:22:40;;;;;;;7.27;2.50;;;14.90;63.00;;;;;;5055298;28;20993;-42
2023/05/30 00:25:09;;;;;;;5.97;2.37;;;14.80;63.10;;;;;;5055340;28;20460;-43
2023/05/30 00:27:36;;;;;;;5.20;2.60;;;14.80;63.10;;;;;;5055526;28;20435;-43
2023/05/30 00:30:03;;;;;;;5.97;2.70;;;14.80;63.50;;;;;;5055825;28;20472;-43
2023/05/30 00:32:34;;;;;;;6.27;2.70;;;14.80;63.50;;;;;;5055361;28;20486;-43
2023/05/30 00:35:00;;;;;;;5.67;2.30;;;14.90;63.70;;;;;;5056562;28;20439;-43
2023/05/30 00:37:28;;;;;;;5.00;1.90;;;14.80;63.80;;;;;;5056846;28;20531;-42
2023/05/30 00:39:55;;;;;;;7.33;2.57;;;15.00;65.00;;;;;;5055540;28;20438;-43
2023/05/30 00:42:21;;;;;;;6.53;2.47;;;14.70;64.10;;;;;;5053851;28;20998;-42
2023/05/30 00:44:48;;;;;;;4.47;2.20;;;14.60;64.20;;;;;;5055900;28;20977;-42
2023/05/30 00:47:16;;;;;;;7.33;2.70;;;15.10;65.10;;;;;;5054757;28;20453;-42
2023/05/30 00:49:44;;;;;;;4.70;2.20;;;14.30;64.40;;;;;;5057907;28;20794;-43
2023/05/30 00:52:12;;;;;;;5.60;2.40;;;14.10;64.50;;;;;;5058217;28;20414;-42
2023/05/30 00:54:42;;;;;;;6.60;2.53;;;14.40;65.10;;;;;;5059014;28;20469;-42
2023/05/30 00:57:09;;;;;;;8.13;2.70;;;14.90;66.00;;;;;;5055514;28;20440;-41
2023/05/30 00:59:36;;;;;;;6.43;1.70;;;14.80;66.20;;;;;;5053248;28;20421;-42
2023/05/30 01:02:03;;;;;;;5.70;2.60;;;14.70;66.30;;;;;;5054908;28;20487;-43
2023/05/30 01:04:32;;;;;;;5.23;2.33;;;14.40;66.00;;;;;;5053397;28;20459;-43
2023/05/30 01:06:59;;;;;;;7.00;2.47;;;14.60;66.70;;;;;;5054530;28;20953;-43
2023/05/30 01:09:26;;;;;;;7.53;2.30;;;14.40;67.00;;;;;;5054062;28;20431;-43
2023/05/30 01:12:02;;;;;;;6.77;2.20;;;14.10;67.20;;;;;;5054245;28;20565;-42
2023/05/30 01:14:47;;;;;;;5.17;2.17;;;14.40;67.50;;;;;;5053197;28;20962;-42
2023/05/30 01:17:20;;;;;;;10.63;3.13;;;14.10;67.40;;;;;;5052892;28;20460;-42
2023/05/30 01:20:05;;;;;;;7.80;2.87;;;14.40;68.10;;;;;;5052476;28;20936;-41
2023/05/30 01:22:50;;;;;;;6.80;3.00;;;14.10;68.00;;;;;;5053964;28;20847;-42
2023/05/30 01:25:27;;;;;;;10.60;2.77;;;14.10;68.00;;;;;;5054342;28;20959;-42
2023/05/30 01:28:07;;;;;;;6.70;2.47;;;14.00;68.30;;;;;;5052564;28;20922;-42
2023/05/30 01:30:37;;;;;;;7.50;2.67;;;14.40;68.70;;;;;;5052689;28;20474;-43
2023/05/30 01:33:05;;;;;;;6.53;3.03;;;14.30;68.70;;;;;;5052666;28;21009;-42
2023/05/30 01:35:32;;;;;;;5.13;2.23;;;13.90;68.60;;;;;;5053929;28;20781;-43
2023/05/30 01:37:59;;;;;;;6.13;2.70;;;14.20;69.20;;;;;;5053897;28;20413;-41
2023/05/30 01:40:27;;;;;;;6.20;2.73;;;14.00;69.10;;;;;;5053647;28;20441;-42
2023/05/30 01:42:59;;;;;;;8.43;2.70;;;14.00;69.30;;;;;;5052260;28;20462;-42
2023/05/30 01:45:39;;;;;;;10.30;2.73;;;14.40;70.00;;;;;;5052360;28;20864;-42
2023/05/30 01:48:13;;;;;;;9.13;2.77;;;14.10;69.70;;;;;;5053588;28;20431;-42
2023/05/30 01:50:44;;;;;;;7.80;3.33;;;13.90;69.60;;;;;;5053608;28;20481;-43
2023/05/30 01:53:17;;;;;;;4.87;2.30;;;13.80;69.70;;;;;;5052198;28;20852;-42
2023/05/30 01:55:46;;;;;;;7.30;2.67;;;13.90;70.10;;;;;;5052446;28;20454;-42
2023/05/30 01:58:16;;;;;;;8.33;2.87;;;14.20;70.60;;;;;;5051803;28;20450;-42
2023/05/30 02:00:45;;;;;;;6.27;2.50;;;13.60;70.10;;;;;;5052109;28;20424;-43
2023/05/30 02:03:12;;;;;;;9.23;3.13;;;13.80;70.40;;;;;;5051932;28;20471;-43
2023/05/30 02:05:39;;;;;;;11.83;4.33;;;13.80;70.90;;;;;;5052148;28;20409;-42
2023/05/30 02:08:06;;;;;;;5.40;2.70;;;14.00;71.40;;;;;;5051275;28;20970;-43
2023/05/30 02:10:32;;;;;;;7.17;2.80;;;13.80;71.10;;;;;;5051741;28;20566;-42
2023/05/30 02:12:59;;;;;;;4.57;2.40;;;14.20;71.60;;;;;;5051632;28;20822;-42
2023/05/30 02:15:26;;;;;;;7.87;2.87;;;13.70;71.40;;;;;;5051742;28;20835;-41
2023/05/30 02:17:54;;;;;;;6.07;2.30;;;13.70;71.40;;;;;;5051631;28;20460;-43
2023/05/30 02:20:20;;;;;;;7.57;2.80;;;13.60;72.50;;;;;;5051724;28;20903;-43
2023/05/30 02:22:47;;;;;;;6.23;2.70;;;13.70;72.40;;;;;;5052083;28;20570;-43
2023/05/30 02:25:14;;;;;;;8.80;3.37;;;13.90;72.60;;;;;;5053806;28;20438;-43
2023/05/30 02:27:41;;;;;;;11.40;3.10;;;14.00;73.00;;;;;;5052289;28;20425;-43
2023/05/30 02:30:08;;;;;;;8.27;3.10;;;14.00;73.40;;;;;;5053329;28;20438;-44
2023/05/30 02:32:35;;;;;;;9.80;2.77;;;13.50;72.80;;;;;;5053728;28;20474;-41
2023/05/30 02:35:04;;;;;;;6.20;2.50;;;13.70;73.30;;;;;;5056812;28;20489;-42
2023/05/30 02:37:30;;;;;;;7.00;2.47;;;13.40;73.20;;;;;;5055219;28;20457;-43
2023/05/30 02:39:58;;;;;;;7.10;3.00;;;13.70;73.80;;;;;;5053452;28;20804;-42
2023/05/30 02:42:26;;;;;;;8.57;3.30;;;13.10;73.50;;;;;;5053491;28;20454;-42
2023/05/30 02:44:53;;;;;;;6.37;2.50;;;13.80;74.40;;;;;;5053163;28;20433;-43
2023/05/30 02:47:20;;;;;;;8.40;2.57;;;13.30;74.10;;;;;;5053743;28;20454;-42
2023/05/30 02:49:47;;;;;;;7.00;2.77;;;13.70;74.90;;;;;;5052593;28;20451;-43
2023/05/30 02:52:15;;;;;;;8.77;2.77;;;13.30;74.30;;;;;;5052664;28;20890;-43
2023/05/30 02:54:51;;;;;;;12.43;3.13;;;13.30;74.80;;;;;;5051340;28;20814;-42
2023/05/30 02:57:24;;;;;;;6.30;2.90;;;13.70;75.50;;;;;;5054385;28;20472;-43
2023/05/30 03:00:15;;;;;;;8.70;2.90;;;13.30;75.30;;;;;;5045063;28;20428;-43
2023/05/30 03:02:49;;;;;;;9.73;3.73;;;13.20;75.50;;;;;;5052036;28;20561;-43
2023/05/30 03:05:17;;;;;;;9.30;2.97;;;13.70;76.30;;;;;;5052255;28;20433;-42
2023/05/30 03:07:45;;;;;;;9.70;3.50;;;13.70;76.30;;;;;;5052573;28;20689;-42
2023/05/30 03:10:12;;;;;;;6.80;2.60;;;13.10;76.20;;;;;;5051428;28;20506;-43
2023/05/30 03:12:45;;;;;;;4.57;2.00;;;13.10;76.50;;;;;;5051465;28;20482;-42
2023/05/30 03:15:12;;;;;;;6.93;2.57;;;13.40;77.10;;;;;;5051370;28;20452;-43
2023/05/30 03:17:42;;;;;;;9.70;3.07;;;13.70;77.40;;;;;;5050661;28;20801;-43
2023/05/30 03:20:09;;;;;;;10.40;3.43;;;13.20;77.40;;;;;;5049551;28;20484;-42
2023/05/30 03:22:36;;;;;;;8.57;3.20;;;13.40;77.60;;;;;;5050631;28;20498;-42
2023/05/30 03:25:06;;;;;;;13.40;3.43;;;13.40;77.50;;;;;;5050566;28;20741;-41
2023/05/30 03:27:33;;;;;;;11.90;3.30;;;13.20;77.40;;;;;;5050932;28;20456;-41
2023/05/30 03:30:00;;;;;;;5.70;3.00;;;13.10;77.80;;;;;;5050426;28;20471;-42
2023/05/30 03:32:26;;;;;;;9.87;2.90;;;13.20;77.90;;;;;;5052557;28;20508;-42
2023/05/30 03:34:53;;;;;;;8.57;3.07;;;13.60;78.60;;;;;;5050974;28;20507;-42
2023/05/30 03:37:23;;;;;;;11.70;3.63;;;13.20;78.20;;;;;;5052498;28;20432;-42
2023/05/30 03:39:50;;;;;;;5.23;2.87;;;13.20;78.20;;;;;;5053163;28;20434;-42
2023/05/30 03:42:18;;;;;;;13.37;3.53;;;13.50;78.90;;;;;;5052432;28;20982;-43
2023/05/30 03:44:46;;;;;;;9.47;4.63;;;13.50;78.90;;;;;;5052433;28;20495;-43
2023/05/30 03:47:12;;;;;;;7.93;3.33;;;13.60;79.20;;;;;;5050959;28;20930;-43
2023/05/30 03:49:39;;;;;;;11.93;4.27;;;13.30;79.00;;;;;;5053305;28;20434;-42
2023/05/30 03:52:06;;;;;;;8.17;3.07;;;13.30;78.90;;;;;;5052631;28;21031;-42
2023/05/30 03:54:33;;;;;;;9.20;3.30;;;13.50;79.30;;;;;;5052029;28;20464;-42
2023/05/30 03:57:00;;;;;;;9.03;3.10;;;13.50;79.20;;;;;;5051114;28;20431;-42
2023/05/30 03:59:28;;;;;;;8.67;4.17;;;13.30;78.60;;;;;;5052342;28;20449;-42
2023/05/30 04:01:55;;;;;;;8.50;3.60;;;13.90;78.90;;;;;;5053355;28;20419;-42
2023/05/30 04:04:21;;;;;;;14.63;3.47;;;13.70;78.30;;;;;;5052102;28;20822;-43
2023/05/30 04:06:49;;;;;;;12.30;3.77;;;13.90;78.00;;;;;;5052880;28;20436;-43
2023/05/30 04:09:15;;;;;;;12.20;3.80;;;14.50;78.10;;;;;;5050698;28;20447;-42
2023/05/30 04:11:42;;;;;;;10.27;3.20;;;14.00;77.20;;;;;;5051272;28;20473;-43
2023/05/30 04:14:09;;;;;;;10.27;3.60;;;14.80;77.60;;;;;;5050640;28;20885;-43
2023/05/30 04:16:37;;;;;;;9.60;3.67;;;14.40;76.70;;;;;;5050111;28;20454;-42
2023/05/30 04:19:05;;;;;;;10.00;3.70;;;14.60;76.70;;;;;;5051042;28;20447;-43
2023/05/30 04:21:32;;;;;;;8.40;3.50;;;15.00;76.80;;;;;;5050337;28;20478;-42
2023/05/30 04:23:59;;;;;;;11.30;3.83;;;14.80;76.30;;;;;;5050318;28;20469;-42
2023/05/30 04:26:26;;;;;;;11.00;3.83;;;15.20;76.50;;;;;;5050112;28;20450;-43
2023/05/30 04:28:56;;;;;;;7.90;4.03;;;15.40;76.50;;;;;;5049835;28;20550;-42
2023/05/30 04:31:23;;;;;;;9.03;3.97;;;15.20;76.00;;;;;;5051535;28;21038;-43
2023/05/30 04:33:53;;;;;;;24.77;5.27;;;15.20;75.70;;;;;;5054440;28;20466;-42
2023/05/30 04:36:21;;;;;;;7.20;2.67;;;15.30;75.60;;;;;;5054715;28;20457;-43
2023/05/30 04:38:52;;;;;;;8.43;3.40;;;15.20;75.00;;;;;;5054046;28;20468;-42
2023/05/30 04:41:20;;;;;;;5.60;2.77;;;15.40;74.70;;;;;;5054101;28;20951;-43
2023/05/30 04:43:52;;;;;;;6.70;3.03;;;15.90;74.80;;;;;;5055094;28;20889;-44
2023/05/30 04:46:21;;;;;;;7.27;3.20;;;15.40;73.70;;;;;;5054524;28;20453;-42
2023/05/30 04:48:51;;;;;;;7.70;3.13;;;15.50;74.30;;;;;;5054110;28;20598;-43
2023/05/30 04:51:20;;;;;;;7.40;3.20;;;15.70;73.20;;;;;;5056469;28;21022;-42
2023/05/30 04:53:47;;;;;;;8.10;2.70;;;16.10;73.40;;;;;;5055513;28;20567;-43
2023/05/30 04:56:14;;;;;;;9.53;3.23;;;15.80;72.60;;;;;;5053118;28;20772;-43
2023/05/30 04:58:40;;;;;;;6.00;2.77;;;16.10;72.40;;;;;;5055977;28;20434;-43
2023/05/30 05:01:09;;;;;;;8.93;3.47;;;16.00;71.60;;;;;;5055859;28;20442;-43
2023/05/30 05:03:36;;;;;;;8.93;3.37;;;16.00;71.40;;;;;;5053737;28;20477;-44
2023/05/30 05:06:03;;;;;;;7.10;3.10;;;16.00;71.10;;;;;;5054751;28;20466;-42
2023/05/30 05:08:33;;;;;;;14.10;3.80;;;15.90;71.00;;;;;;5055223;28;20438;-41
2023/05/30 05:11:00;;;;;;;19.40;3.30;;;16.10;71.10;;;;;;5054625;28;20444;-42
2023/05/30 05:13:27;;;;;;;17.90;3.33;;;16.10;70.90;;;;;;5054435;28;20442;-43
2023/05/30 05:15:55;;;;;;;8.63;3.40;;;16.40;71.10;;;;;;5054791;28;20439;-43
2023/05/30 05:18:22;;;;;;;12.80;3.63;;;15.90;70.30;;;;;;5055451;28;20820;-42
2023/05/30 05:20:48;;;;;;;9.80;2.83;;;16.40;70.50;;;;;;5055507;28;20441;-43
2023/05/30 05:23:15;;;;;;;9.27;3.43;;;16.00;70.00;;;;;;5056582;28;20450;-43
2023/05/30 05:25:43;;;;;;;14.03;3.43;;;16.50;70.30;;;;;;5058211;28;20794;-43
2023/05/30 05:28:10;;;;;;;8.23;4.03;;;16.60;70.10;;;;;;5057347;28;20415;-42
2023/05/30 05:30:37;;;;;;;8.97;2.90;;;16.70;69.60;;;;;;5058486;28;20860;-43
2023/05/30 05:33:04;;;;;;;5.80;2.80;;;17.00;69.70;;;;;;5054765;28;20502;-43
2023/05/30 05:35:30;;;;;;;7.80;3.30;;;16.70;69.10;;;;;;5054345;28;20437;-43
2023/05/30 05:37:57;;;;;;;8.87;2.40;;;16.80;69.00;;;;;;5054499;28;20431;-43
2023/05/30 05:40:23;;;;;;;8.90;2.87;;;16.70;68.70;;;;;;5054451;28;20865;-43
2023/05/30 05:42:51;;;;;;;7.50;3.00;;;16.80;68.90;;;;;;5053554;28;20451;-42
2023/05/30 05:45:18;;;;;;;11.30;2.90;;;17.00;69.00;;;;;;5054495;28;20962;-43
2023/05/30 05:47:45;;;;;;;16.03;2.93;;;16.80;68.60;;;;;;5054773;28;20467;-44
2023/05/30 05:50:12;;;;;;;6.87;2.73;;;16.90;68.50;;;;;;5052149;28;20448;-43
2023/05/30 05:52:40;;;;;;;13.90;2.97;;;17.10;68.00;;;;;;5054337;28;20487;-43
2023/05/30 05:55:07;;;;;;;5.53;2.40;;;16.60;67.40;;;;;;5053838;28;20936;-43
2023/05/30 05:57:34;;;;;;;7.40;3.07;;;17.10;67.40;;;;;;5053066;28;20458;-43
2023/05/30 06:00:05;;;;;;;4.67;2.40;;;17.00;67.20;;;;;;5053411;28;21034;-43
2023/05/30 06:02:39;;;;;;;10.17;5.73;;;17.10;66.90;;;;;;5054179;28;20433;-44
2023/05/30 06:05:07;;;;;;;9.33;2.50;;;17.20;67.20;;;;;;5054131;28;20519;-44
2023/05/30 06:07:34;;;;;;;12.30;2.90;;;17.20;67.00;;;;;;5054277;28;20744;-42
2023/05/30 06:10:00;;;;;;;6.67;2.70;;;17.40;66.60;;;;;;5054113;28;20432;-43
2023/05/30 06:12:27;;;;;;;6.80;3.00;;;17.40;66.00;;;;;;5054001;28;20553;-44
2023/05/30 06:14:54;;;;;;;6.53;2.40;;;17.60;65.80;;;;;;5054716;28;20432;-44
2023/05/30 06:17:22;;;;;;;10.20;3.60;;;17.70;65.10;;;;;;5053888;28;20942;-45
2023/05/30 06:19:50;;;;;;;6.90;2.67;;;17.80;64.60;;;;;;5053945;28;20506;-43
2023/05/30 06:22:17;;;;;;;11.30;3.00;;;17.60;63.90;;;;;;5053486;28;20429;-44
2023/05/30 06:24:43;;;;;;;5.33;2.90;;;17.90;64.00;;;;;;5052605;28;20453;-43
2023/05/30 06:27:10;;;;;;;38.43;5.97;;;18.00;63.70;;;;;;5053563;28;20460;-43
2023/05/30 06:29:37;;;;;;;9.00;2.63;;;17.80;63.50;;;;;;5053977;28;20920;-43
2023/05/30 06:32:04;;;;;;;7.73;3.77;;;17.70;63.50;;;;;;5053333;28;20482;-44
2023/05/30 06:34:32;;;;;;;9.00;3.20;;;18.30;64.40;;;;;;5053607;28;20450;-43
2023/05/30 06:36:58;;;;;;;7.87;3.27;;;18.10;63.20;;;;;;5055851;28;20438;-43
2023/05/30 06:39:26;;;;;;;9.33;3.07;;;18.00;63.70;;;;;;5056333;28;20814;-43
2023/05/30 06:41:53;;;;;;;8.90;2.50;;;18.00;63.70;;;;;;5055688;28;20467;-44
2023/05/30 06:44:36;;;;;;;6.40;2.63;;;18.10;63.60;;;;;;5053581;28;20485;-43
2023/05/30 06:47:04;;;;;;;6.57;3.90;;;18.00;63.30;;;;;;5054037;28;20444;-45
2023/05/30 06:49:32;;;;;;;9.03;2.83;;;18.00;63.60;;;;;;5053038;28;20950;-44
2023/05/30 06:51:59;;;;;;;9.07;3.17;;;17.70;63.70;;;;;;5052879;28;20492;-45
2023/05/30 06:54:25;;;;;;;6.80;3.07;;;18.10;64.10;;;;;;5051529;28;20473;-42
2023/05/30 06:56:52;;;;;;;5.20;2.90;;;18.10;64.60;;;;;;5052646;28;20444;-43
2023/05/30 06:59:19;;;;;;;9.30;3.10;;;18.50;65.50;;;;;;5052923;28;20419;-43
2023/05/30 07:01:47;;;;;;;8.00;2.53;;;18.10;65.00;;;;;;5052160;28;20957;-44
2023/05/30 07:04:13;;;;;;;9.20;3.20;;;18.10;65.20;;;;;;5052563;28;20442;-43
2023/05/30 07:06:41;;;;;;;7.03;2.50;;;18.20;65.00;;;;;;5052800;28;20435;-42
2023/05/30 07:09:08;;;;;;;12.73;3.53;;;18.20;64.70;;;;;;5051786;28;20501;-43
2023/05/30 07:11:35;;;;;;;8.00;2.70;;;18.30;64.70;;;;;;5052468;28;20780;-42
2023/05/30 07:14:01;;;;;;;14.13;3.20;;;18.50;64.80;;;;;;5052859;28;20469;-44
2023/05/30 07:16:28;;;;;;;11.03;2.97;;;18.40;64.70;;;;;;5052500;28;20461;-43
2023/05/30 07:18:55;;;;;;;4.70;2.27;;;18.40;64.40;;;;;;5052677;28;20837;-43
2023/05/30 07:21:22;;;;;;;12.40;3.00;;;18.40;64.20;;;;;;5051668;28;20971;-42
2023/05/30 07:23:50;;;;;;;8.10;3.10;;;18.40;64.30;;;;;;5052694;28;20527;-43
2023/05/30 07:26:17;;;;;;;4.90;2.27;;;18.30;64.20;;;;;;5053118;28;20449;-43
2023/05/30 07:28:43;;;;;;;5.43;2.10;;;18.50;64.80;;;;;;5050961;28;20449;-42
2023/05/30 07:31:10;;;;;;;6.63;2.83;;;17.90;63.70;;;;;;5053155;28;20445;-43
2023/05/30 07:33:36;;;;;;;5.37;2.17;;;18.20;63.70;;;;;;5053711;28;20568;-43
2023/05/30 07:36:03;;;;;;;7.50;2.70;;;18.50;63.90;;;;;;5053624;28;20437;-42
2023/05/30 07:38:30;;;;;;;5.13;1.90;;;18.40;64.10;;;;;;5052455;28;20442;-45
2023/05/30 07:40:58;;;;;;;6.67;2.13;;;18.60;63.00;;;;;;5052761;28;20277;-43
2023/05/30 07:43:25;;;;;;;6.53;2.20;;;18.40;61.50;;;;;;5052551;28;20819;-44
2023/05/30 07:45:51;;;;;;;4.43;2.20;;;18.60;61.70;;;;;;5050370;28;20449;-43
2023/05/30 07:48:18;;;;;;;6.33;2.50;;;18.60;61.50;;;;;;5051525;28;20435;-48
2023/05/30 07:50:45;;;;;;;4.30;2.00;;;18.60;61.70;;;;;;5051896;28;20457;-43
2023/05/30 07:53:12;;;;;;;4.00;2.13;;;18.80;61.80;;;;;;5052694;28;20486;-43
2023/05/30 07:55:39;;;;;;;6.00;2.10;;;18.80;61.70;;;;;;5053220;28;20437;-42
2023/05/30 07:58:07;;;;;;;5.27;2.10;;;18.80;61.20;;;;;;5052214;28;20945;-44
2023/05/30 08:00:34;;;;;;;6.97;2.27;;;19.00;60.40;;;;;;5052438;28;20935;-44
2023/05/30 08:03:01;;;;;;;4.90;2.47;;;18.70;60.30;;;;;;5053179;28;20449;-43
2023/05/30 08:05:27;;;;;;;9.10;2.53;;;18.80;60.70;;;;;;5052695;28;20438;-42
2023/05/30 08:07:54;;;;;;;6.47;2.00;;;18.80;59.80;;;;;;5055836;28;20430;-43
2023/05/30 08:10:21;;;;;;;5.13;2.30;;;18.60;59.20;;;;;;5055789;28;20433;-44
2023/05/30 08:12:47;;;;;;;4.90;2.60;;;18.80;59.30;;;;;;5056981;28;20489;-43
2023/05/30 08:15:16;;;;;;;6.40;2.43;;;18.60;59.10;;;;;;5056615;28;20436;-43
2023/05/30 08:17:44;;;;;;;6.83;2.00;;;18.60;59.50;;;;;;5057276;28;20829;-43
2023/05/30 08:20:12;;;;;;;5.68;2.10;;;18.20;59.10;;;;;;5055898;28;20431;-42
2023/05/30 08:22:39;;;;;;;6.13;2.30;;;18.70;59.20;;;;;;5057478;28;20215;-42
2023/05/30 08:25:07;;;;;;;4.50;1.80;;;18.30;59.10;;;;;;5056713;28;20403;-43
2023/05/30 08:27:37;;;;;;;6.03;2.20;;;18.80;58.90;;;;;;5057183;28;20469;-42
2023/05/30 08:30:04;;;;;;;6.47;2.60;;;19.20;58.90;;;;;;5055820;28;20446;-43
2023/05/30 08:32:33;;;;;;;8.37;2.67;;;18.90;58.80;;;;;;5057582;28;20492;-43
2023/05/30 08:35:00;;;;;;;5.43;1.97;;;18.70;58.70;;;;;;5058967;28;20429;-43
2023/05/30 08:37:27;;;;;;;4.40;2.50;;;18.90;58.40;;;;;;5058656;28;20465;-42
2023/05/30 08:39:54;;;;;;;8.30;2.30;;;18.60;58.00;;;;;;5040183;28;20441;-43
2023/05/30 08:42:21;;;;;;;7.30;2.60;;;18.80;57.90;;;;;;5038940;28;20447;-43
2023/05/30 08:44:47;;;;;;;5.80;2.00;;;18.70;58.10;;;;;;5038339;28;20485;-43
2023/05/30 08:47:17;;;;;;;4.50;2.67;;;18.60;58.00;;;;;;5037619;28;20438;-43
2023/05/30 08:49:47;;;;;;;7.90;3.13;;;18.40;57.50;;;;;;5036983;28;20772;-44
2023/05/30 08:52:15;;;;;;;5.47;2.40;;;18.90;57.70;;;;;;5037099;28;20865;-43
2023/05/30 08:54:47;;;;;;;11.23;2.87;;;18.80;57.30;;;;;;5039434;28;20478;-43
2023/05/30 08:57:22;;;;;;;5.60;2.50;;;18.80;56.50;;;;;;5041305;28;20473;-43
2023/05/30 08:59:50;;;;;;;6.57;2.33;;;18.70;56.20;;;;;;5036860;28;20438;-43
2023/05/30 09:02:19;;;;;;;8.77;3.30;;;18.80;56.40;;;;;;5036401;28;20447;-44
2023/05/30 09:04:49;;;;;;;5.20;2.40;;;18.90;56.60;;;;;;5035550;28;20443;-43
2023/05/30 09:07:16;;;;;;;7.70;2.83;;;18.30;55.70;;;;;;5036872;28;20858;-42
2023/05/30 09:09:45;;;;;;;5.70;2.00;;;18.70;55.70;;;;;;5037119;28;20493;-43
2023/05/30 09:12:12;;;;;;;7.47;2.97;;;18.90;55.70;;;;;;5037552;28;20436;-44
2023/05/30 09:14:39;;;;;;;13.53;3.30;;;18.80;55.50;;;;;;5037776;28;20485;-43
2023/05/30 09:17:06;;;;;;;7.07;2.60;;;18.90;56.30;;;;;;5035407;28;20439;-43
2023/05/30 09:19:34;;;;;;;12.43;3.37;;;18.90;56.20;;;;;;5034209;28;20439;-44
2023/05/30 09:22:02;;;;;;;12.53;2.97;;;19.10;56.80;;;;;;5035250;28;20510;-42
2023/05/30 09:24:58;;;;;;;15.07;2.57;;;19.00;56.80;;;;;;5034961;28;20437;-42
2023/05/30 09:27:25;;;;;;;6.10;2.80;;;18.90;55.30;;;;;;5033241;28;20778;-45
2023/05/30 09:29:51;;;;;;;7.80;2.73;;;18.90;55.80;;;;;;5034215;28;20493;-42
2023/05/30 09:32:19;;;;;;;8.47;2.77;;;19.00;55.30;;;;;;5035112;28;20442;-43
2023/05/30 09:34:54;;;;;;;6.97;2.50;;;18.90;54.60;;;;;;5035304;28;20784;-44
2023/05/30 09:37:22;;;;;;;6.03;3.97;;;19.20;54.60;;;;;;5035389;28;20437;-43
2023/05/30 09:40:06;;;;;;;8.53;2.13;;;19.00;55.20;;;;;;5035254;28;20443;-44
2023/05/30 09:42:39;;;;;;;8.30;2.33;;;19.30;55.60;;;;;;5034887;28;20459;-44
2023/05/30 09:45:07;;;;;;;6.70;2.97;;;19.00;55.30;;;;;;5035212;28;20434;-43
2023/05/30 09:47:39;;;;;;;8.13;2.70;;;19.10;55.00;;;;;;5033757;28;20517;-44
2023/05/30 09:50:07;;;;;;;5.00;2.40;;;19.20;55.00;;;;;;5035421;28;20852;-44
2023/05/30 09:52:37;;;;;;;8.00;2.10;;;19.20;54.80;;;;;;5033666;28;20591;-43
2023/05/30 09:55:05;;;;;;;5.17;2.63;;;19.30;53.80;;;;;;5034084;28;20497;-43
2023/05/30 09:57:35;;;;;;;5.77;2.20;;;19.10;53.20;;;;;;5034612;28;20455;-43
2023/05/30 10:00:09;;;;;;;7.20;2.43;;;18.80;53.10;;;;;;5032258;28;20980;-43
2023/05/30 10:02:37;;;;;;;7.57;2.60;;;19.20;53.40;;;;;;5029921;28;20426;-43
2023/05/30 10:05:04;;;;;;;5.90;3.17;;;19.40;53.80;;;;;;5034867;28;20234;-43
2023/05/30 10:07:32;;;;;;;7.30;3.17;;;19.50;53.60;;;;;;5034900;28;20466;-43
2023/05/30 10:10:01;;;;;;;6.40;3.70;;;19.30;53.30;;;;;;5034166;28;20446;-43
2023/05/30 10:12:30;;;;;;;9.80;3.40;;;19.30;52.90;;;;;;5034689;28;20474;-44
2023/05/30 10:14:56;;;;;;;6.70;2.00;;;19.30;53.30;;;;;;5033427;28;20850;-42
2023/05/30 10:17:27;;;;;;;8.40;2.83;;;19.40;53.10;;;;;;5033569;28;20435;-43
2023/05/30 10:20:00;;;;;;;4.50;2.40;;;19.40;53.10;;;;;;5033392;28;20530;-43
2023/05/30 10:22:29;;;;;;;8.57;3.40;;;19.30;52.80;;;;;;5030938;28;20886;-44
2023/05/30 10:24:58;;;;;;;4.50;2.30;;;19.40;52.90;;;;;;5032510;28;20446;-44
2023/05/30 10:27:31;;;;;;;6.63;2.57;;;19.60;53.30;;;;;;5033190;28;20450;-44
2023/05/30 10:30:04;;;;;;;5.27;2.50;;;19.40;53.10;;;;;;5033039;28;20443;-43
2023/05/30 10:32:34;;;;;;;6.27;2.50;;;19.50;52.70;;;;;;5031331;28;20467;-44
2023/05/30 10:35:08;;;;;;;5.60;2.33;;;19.50;52.70;;;;;;5033053;28;20491;-43
2023/05/30 10:37:36;;;;;;;7.53;2.80;;;19.70;52.30;;;;;;5033143;28;20439;-44
2023/05/30 10:40:16;;;;;;;6.30;2.80;;;19.40;51.80;;;;;;5033009;28;20451;-43
2023/05/30 10:43:03;;;;;;;6.07;2.50;;;19.50;52.00;;;;;;5033054;28;20450;-43
2023/05/30 10:45:39;;;;;;;8.07;2.10;;;19.70;51.90;;;;;;5033257;28;20507;-43
2023/05/30 10:48:17;;;;;;;9.03;3.30;;;19.70;52.10;;;;;;5031489;28;20450;-43
2023/05/30 10:50:49;;;;;;;7.47;2.60;;;19.50;51.90;;;;;;5034092;28;20442;-43
2023/05/30 10:53:17;;;;;;;4.03;2.20;;;19.80;52.10;;;;;;5041154;28;20573;-43
2023/05/30 10:55:47;;;;;;;4.13;1.90;;;19.80;51.10;;;;;;5035130;28;20444;-43
2023/05/30 10:58:37;;;;;;;4.90;2.30;;;19.60;50.40;;;;;;5033219;28;20603;-43
2023/05/30 11:01:24;;;;;;;5.70;2.30;;;19.70;50.00;;;;;;5034318;28;20467;-43
2023/05/30 11:03:56;;;;;;;6.75;2.40;;;19.70;49.90;;;;;;5032019;28;20969;-44
2023/05/30 11:06:24;;;;;;;8.07;2.25;;;19.60;51.00;;;;;;5030716;28;20452;-44
2023/05/30 11:08:53;;;;;;;8.17;2.53;;;19.80;51.20;;;;;;5030141;28;20617;-44
2023/05/30 11:11:20;;;;;;;4.57;2.50;;;19.70;51.40;;;;;;5029301;28;20491;-43
2023/05/30 11:13:49;;;;;;;4.00;1.97;;;19.30;50.90;;;;;;5030412;28;21006;-42
2023/05/30 11:16:23;;;;;;;4.47;2.23;;;19.60;51.20;;;;;;5030573;28;20944;-44
2023/05/30 11:18:52;;;;;;;5.40;2.07;;;19.80;51.30;;;;;;5032710;28;20905;-43
2023/05/30 11:21:52;;;;;;;3.77;2.33;;;19.80;51.10;;;;;;5030899;28;20453;-44
2023/05/30 11:24:20;;;;;;;8.50;2.53;;;19.80;50.90;;;;;;5032027;28;20816;-43
2023/05/30 11:26:53;;;;;;;9.10;2.27;;;19.90;50.60;;;;;;5032193;28;20440;-44
2023/05/30 11:29:44;;;;;;;5.70;2.40;;;20.10;50.00;;;;;;5031720;28;20972;-43
2023/05/30 11:32:12;;;;;;;6.70;2.67;;;20.00;50.40;;;;;;5032357;28;20507;-44
2023/05/30 11:34:39;;;;;;;5.27;2.60;;;19.90;50.40;;;;;;5032244;28;21015;-44
2023/05/30 11:37:06;;;;;;;5.63;2.70;;;20.00;50.70;;;;;;5032444;28;20518;-43
2023/05/30 11:39:33;;;;;;;6.60;2.50;;;20.00;50.40;;;;;;5031835;28;20437;-44
2023/05/30 11:42:01;;;;;;;4.07;2.00;;;19.80;50.20;;;;;;5030257;28;20521;-43
2023/05/30 11:44:29;;;;;;;5.43;2.40;;;19.90;50.90;;;;;;5031707;28;20432;-44
2023/05/30 11:47:01;;;;;;;4.90;2.27;;;20.00;51.10;;;;;;5031845;28;20445;-44
2023/05/30 11:49:28;;;;;;;5.93;2.87;;;20.00;51.40;;;;;;5029454;28;20820;-45
2023/05/30 11:51:55;;;;;;;8.00;2.50;;;20.20;51.50;;;;;;5042891;28;20446;-44
2023/05/30 11:54:22;;;;;;;5.30;2.30;;;20.20;51.70;;;;;;5045056;28;20478;-45
2023/05/30 11:56:50;;;;;;;3.33;1.70;;;20.20;51.70;;;;;;5050397;28;20452;-45
2023/05/30 11:59:19;;;;;;;6.72;2.30;;;20.20;52.20;;;;;;5050247;28;20493;-43
2023/05/30 12:01:51;;;;;;;6.73;1.70;;;20.50;52.40;;;;;;5049073;28;20662;-43
2023/05/30 12:04:21;;;;;;;3.43;1.87;;;20.50;52.30;;;;;;5032507;28;20497;-44
2023/05/30 12:06:48;;;;;;;5.47;2.80;;;20.40;52.30;;;;;;5032153;28;20461;-43
2023/05/30 12:09:15;;;;;;;7.20;2.57;;;20.40;52.20;;;;;;5031254;28;20950;-43
2023/05/30 12:11:57;;;;;;;4.63;2.30;;;20.40;52.40;;;;;;5031752;28;20492;-43
2023/05/30 12:14:36;;;;;;;5.03;2.27;;;20.40;52.20;;;;;;5090742;22;20509;-43
2023/05/30 12:17:03;;;;;;;3.60;2.10;;;20.50;52.10;;;;;;5074604;28;20439;-46
2023/05/30 12:19:31;;;;;;;5.17;2.03;;;20.40;52.10;;;;;;5073500;28;20453;-45
2023/05/30 12:21:58;;;;;;;6.47;2.10;;;20.50;52.30;;;;;;5075401;28;20446;-44
2023/05/30 12:24:25;;;;;;;4.97;2.40;;;20.40;52.30;;;;;;5072990;28;20446;-43
2023/05/30 12:26:55;;;;;;;4.47;2.20;;;20.50;52.70;;;;;;5071842;28;20789;-45
2023/05/30 12:29:24;;;;;;;5.27;1.80;;;20.60;53.00;;;;;;5070869;28;20439;-45
2023/05/30 12:31:51;;;;;;;5.07;2.50;;;20.40;52.90;;;;;;5071794;28;20415;-46
2023/05/30 12:34:18;;;;;;;5.70;2.87;;;20.40;52.90;;;;;;5070931;28;20493;-46
2023/05/30 12:36:47;;;;;;;4.17;2.70;;;20.60;52.70;;;;;;5071362;28;20429;-44
2023/05/30 12:39:14;;;;;;;9.90;2.60;;;20.60;52.60;;;;;;5052353;28;20439;-44
2023/05/30 12:41:41;;;;;;;6.10;2.60;;;20.60;52.60;;;;;;5070201;28;20430;-44
2023/05/30 12:44:08;;;;;;;5.90;2.37;;;20.90;53.50;;;;;;5071018;28;20252;-44
2023/05/30 12:46:36;;;;;;;4.50;2.67;;;20.80;53.80;;;;;;5070739;28;20440;-46
2023/05/30 12:49:03;;;;;;;5.77;2.10;;;20.90;54.00;;;;;;5070958;28;20443;-45
2023/05/30 12:51:30;;;;;;;4.20;2.10;;;20.70;53.80;;;;;;5071871;28;20405;-46
2023/05/30 12:54:00;;;;;;;5.50;2.60;;;20.60;53.50;;;;;;5073685;28;20479;-45